Terminal Aerodrome Forecast
Issued by NWS Mt. Holly, NJ

Home | Current Version | Previous Version | Text Only | Print | Product List | Glossary On
Versions: 1 2 3 4 5 6 7 8 9 10 11 12 13 14 15 16 17 18 19 20 21 22
000
FTUS41 KPHI 130900 AAB
TAFRDG
TAF AMD
KRDG 130906Z 1309/1406 17006KT P6SM OVC015
      TEMPO 1311/1313 SCT015 BKN060
     FM131300 21008KT P6SM SCT045 BKN100
     FM131600 22010G18KT P6SM SCT045
     FM132000 22010G20KT P6SM BKN045
      TEMPO 1321/1323 3SM TSRA BR OVC020CB
     FM132300 22006KT P6SM -SHRA OVC035
     FM140200 VRB03KT 4SM BR SCT035 BKN100=

USA.gov is the U.S. government's official web portal to all federal, state and local government web resources and services.